aviador You're here:

YPCC Decoded Metar

COCOS ISL INTL A in AUSTRALIA
Report Time2017-06-23 08:00:00
UTC Time2017-06-23 08:23:34
Flight Rules vfr VFR
Wind120° at 19 Gusting to 29 kt
W.Decomp.*RWY 15: 16.9 kt HW 8.6 kt LCW
W.Rank120° ranks 2
Current wind is above 120° avg. (12.9)
Visibility9999 m
Phenomena:N/A
Clouds:Scattered 017 Hf
Scattered 023 Hf
Expected CloudBase > 1,200 ft AGL from Temp-Dew spread
CeilingNone
Temp27°C (ISA +12)
Dew Point24°C (84% RH)
Heat Index30.1°C
AAT26.0°C
QNH1010 hPa
Density Alt1,890 ft
Elevation10 ft
Report Wrong Elevation
Raw Report
METAR YPCC 230800Z 12019G29KT 9999 SCT017 SCT023 27/24 Q1010=

Extra information for YPCC:More info

Metar Taf Metar & Taf Last 4 Metars F.Rules Stats Wind Profile Meteogram Temp Stats Airport Information Weather charts Add Link Nearby VenuesMetar ALERT Operation Metar Decoded Social comments